Time;durP1;ratioP1;P1;durP2;ratioP2;P2;SDS_P1;SDS_P2;PMS_P1;PMS_P2;Temp;Humidity;BMP_temperature;BMP_pressure;BME280_temperature;BME280_humidity;BME280_pressure;Samples;Min_cycle;Max_cycle;Signal;HPM_P1;HPM_P2
2022/07/31 00:01:14;;;;;;;13.48;12.32;;;;;;;21.46;69.96;94762.38;5041593;28;20221;-64
2022/07/31 00:03:40;;;;;;;12.95;11.85;;;;;;;21.50;70.93;94758.22;5031290;28;20229;-63
2022/07/31 00:06:06;;;;;;;13.80;12.70;;;;;;;21.47;71.19;94756.00;5055694;28;20238;-64
2022/07/31 00:08:32;;;;;;;14.82;13.35;;;;;;;21.44;71.50;94758.28;5025813;28;20392;-64
2022/07/31 00:10:58;;;;;;;14.77;13.30;;;;;;;21.40;72.22;94762.47;5026659;28;20349;-64
2022/07/31 00:13:23;;;;;;;14.10;12.80;;;;;;;21.45;70.70;94757.28;5028679;28;20222;-64
2022/07/31 00:15:49;;;;;;;15.85;14.55;;;;;;;21.46;70.52;94757.03;5026992;28;20526;-64
2022/07/31 00:18:14;;;;;;;18.58;16.98;;;;;;;21.54;69.92;94748.72;5023586;28;20253;-64
2022/07/31 00:20:40;;;;;;;18.55;16.95;;;;;;;21.54;69.98;94755.91;5024873;28;20300;-64
2022/07/31 00:23:06;;;;;;;19.67;18.08;;;;;;;21.50;70.70;94768.13;5024892;28;20466;-64
2022/07/31 00:25:31;;;;;;;19.05;17.38;;;;;;;21.47;70.76;94772.06;5025486;28;20264;-64
2022/07/31 00:27:57;;;;;;;21.10;19.42;;;;;;;21.54;70.35;94778.16;5028435;28;20317;-63
2022/07/31 00:30:23;;;;;;;20.85;19.20;;;;;;;21.61;70.28;94770.03;5026794;28;20238;-64
2022/07/31 00:32:48;;;;;;;22.48;20.67;;;;;;;21.52;70.64;94784.75;5031014;28;20256;-63
2022/07/31 00:35:14;;;;;;;22.05;19.98;;;;;;;21.34;71.28;94780.22;5044555;28;20205;-63
2022/07/31 00:37:41;;;;;;;22.30;20.50;;;;;;;21.26;71.87;94780.53;5025098;28;20198;-63
2022/07/31 00:40:09;;;;;;;22.08;20.20;;;;;;;21.22;71.77;94780.13;5041870;28;20224;-63
2022/07/31 00:42:35;;;;;;;21.67;19.88;;;;;;;21.22;71.48;94785.47;5042005;28;20217;-63
2022/07/31 00:45:00;;;;;;;20.42;18.73;;;;;;;21.14;71.48;94786.63;5046094;28;20232;-63
2022/07/31 00:47:26;;;;;;;19.02;17.58;;;;;;;21.10;71.04;94776.59;5047143;28;20592;-62
2022/07/31 00:49:52;;;;;;;19.15;17.55;;;;;;;21.05;71.18;94777.25;5046470;28;20201;-65
2022/07/31 00:52:17;;;;;;;18.92;17.42;;;;;;;21.03;71.09;94779.31;5044245;28;20225;-63
2022/07/31 00:54:43;;;;;;;18.83;17.13;;;;;;;21.05;70.99;94774.56;5042228;28;20224;-62
2022/07/31 00:57:08;;;;;;;18.17;16.77;;;;;;;21.06;70.34;94776.22;5058397;28;20226;-63
2022/07/31 00:59:34;;;;;;;19.65;18.15;;;;;;;21.08;70.79;94790.16;5041046;28;20233;-63
2022/07/31 01:01:59;;;;;;;19.35;17.85;;;;;;;21.00;70.89;94787.78;5044386;28;20304;-63
2022/07/31 01:04:25;;;;;;;16.83;15.52;;;;;;;20.93;70.49;94790.53;5037934;28;20221;-63
2022/07/31 01:06:54;;;;;;;16.98;15.48;;;;;;;20.85;71.13;94784.66;5043257;28;20217;-64
2022/07/31 01:09:20;;;;;;;15.90;14.60;;;;;;;20.88;71.40;94781.56;5061829;28;20245;-64
2022/07/31 01:12:01;;;;;;;16.45;15.13;;;;;;;20.91;71.08;94786.47;5037266;28;20260;-63
2022/07/31 01:14:32;;;;;;;15.68;14.18;;;;;;;20.96;69.83;94797.31;5024558;28;20280;-62
2022/07/31 01:17:00;;;;;;;16.33;14.93;;;;;;;20.99;69.61;94791.50;5025862;28;20293;-63
2022/07/31 01:19:39;;;;;;;17.50;15.95;;;;;;;20.98;70.57;94791.72;5040975;28;20214;-63
2022/07/31 01:22:38;;;;;;;17.13;15.65;;;;;;;20.89;70.98;94791.19;5039162;28;20308;-63
2022/07/31 01:25:13;;;;;;;17.63;16.08;;;;;;;20.76;72.09;94786.78;5028428;28;20237;-63
2022/07/31 01:27:56;;;;;;;17.45;15.93;;;;;;;20.60;73.12;94787.38;5022118;28;20355;-63
2022/07/31 01:30:25;;;;;;;18.35;16.63;;;;;;;20.58;73.92;94782.25;5026105;28;20245;-63
2022/07/31 01:32:52;;;;;;;17.45;15.77;;;;;;;20.62;73.76;94783.44;5014327;28;20214;-63
2022/07/31 01:35:25;;;;;;;17.02;15.52;;;;;;;20.72;72.72;94795.50;5024402;28;20202;-64
2022/07/31 01:38:01;;;;;;;18.77;17.17;;;;;;;20.82;71.05;94785.09;5025214;28;20205;-63
2022/07/31 01:40:40;;;;;;;17.05;15.70;;;;;;;20.55;71.99;94790.69;5025401;28;20222;-63
2022/07/31 01:43:11;;;;;;;17.58;16.17;;;;;;;20.41;73.47;94794.47;5028451;28;20234;-63
2022/07/31 01:45:40;;;;;;;17.60;16.10;;;;;;;20.36;74.01;94795.13;5021580;28;20234;-64
2022/07/31 01:48:09;;;;;;;17.70;15.90;;;;;;;20.19;73.81;94797.53;5019403;28;20226;-63
2022/07/31 01:50:37;;;;;;;16.60;15.30;;;;;;;20.40;72.97;94771.50;5023577;28;20313;-63
2022/07/31 01:53:04;;;;;;;15.70;14.48;;;;;;;20.30;74.03;94771.16;5025916;28;20269;-63
2022/07/31 01:55:30;;;;;;;16.73;15.32;;;;;;;20.29;74.03;94783.69;5021000;28;20221;-63
2022/07/31 01:57:56;;;;;;;16.95;15.52;;;;;;;20.32;73.98;94779.78;5028529;28;20238;-63
2022/07/31 02:00:22;;;;;;;17.13;15.73;;;;;;;20.51;72.79;94776.13;5027929;28;20241;-64
2022/07/31 02:02:49;;;;;;;17.38;15.77;;;;;;;20.32;73.58;94777.09;5024359;28;20268;-63
2022/07/31 02:05:18;;;;;;;16.85;15.43;;;;;;;20.32;73.56;94777.09;5024073;28;20206;-63
2022/07/31 02:07:44;;;;;;;16.30;14.90;;;;;;;20.17;74.66;94782.75;5040568;28;20205;-63
2022/07/31 02:10:13;;;;;;;17.42;15.98;;;;;;;20.22;74.67;94786.41;5042494;28;20256;-63
2022/07/31 02:12:39;;;;;;;16.73;15.43;;;;;;;20.35;74.32;94787.34;5036951;28;20226;-62
2022/07/31 02:15:08;;;;;;;17.15;15.57;;;;;;;20.37;74.02;94778.09;5044729;28;20260;-63
2022/07/31 02:17:36;;;;;;;17.23;15.80;;;;;;;20.35;73.89;94779.34;5042994;28;20218;-63
2022/07/31 02:20:04;;;;;;;16.42;15.02;;;;;;;20.36;73.90;94783.63;5044355;28;20193;-63
2022/07/31 02:22:30;;;;;;;16.40;14.90;;;;;;;20.28;74.34;94785.53;5005867;28;20217;-63
2022/07/31 02:24:56;;;;;;;16.45;14.75;;;;;;;20.35;74.15;94776.66;5022878;28;20276;-63
2022/07/31 02:27:23;;;;;;;16.75;15.23;;;;;;;20.25;74.52;94780.63;5032494;28;20225;-63
2022/07/31 02:29:49;;;;;;;16.38;14.98;;;;;;;20.24;74.91;94776.34;5037383;28;20250;-62
2022/07/31 02:32:16;;;;;;;15.60;14.30;;;;;;;20.20;74.54;94783.13;5026917;28;20563;-62
2022/07/31 02:34:44;;;;;;;15.88;14.50;;;;;;;20.25;74.74;94785.97;5025379;28;20299;-62
2022/07/31 02:37:12;;;;;;;16.55;15.13;;;;;;;20.21;74.54;94781.31;5025927;28;20234;-62
2022/07/31 02:39:39;;;;;;;16.13;14.63;;;;;;;20.16;74.85;94794.47;5034936;28;20224;-62
2022/07/31 02:42:05;;;;;;;15.68;14.25;;;;;;;20.08;75.72;94800.91;5031178;28;20234;-62
2022/07/31 02:44:33;;;;;;;16.30;14.75;;;;;;;20.10;76.00;94796.16;4990166;28;20225;-62
2022/07/31 02:47:01;;;;;;;16.13;14.82;;;;;;;20.12;75.98;94794.06;5056039;28;20312;-63
2022/07/31 02:49:28;;;;;;;17.02;15.52;;;;;;;20.06;76.42;94794.94;5022911;28;20222;-63
2022/07/31 02:51:58;;;;;;;18.42;16.77;;;;;;;19.61;78.18;94794.97;5031793;28;20238;-64
2022/07/31 02:54:24;;;;;;;18.67;17.17;;;;;;;19.91;77.40;94800.56;5025334;28;20312;-63
2022/07/31 02:56:51;;;;;;;20.65;18.83;;;;;;;20.03;76.78;94795.38;5029258;28;20316;-63
2022/07/31 02:59:16;;;;;;;20.25;18.50;;;;;;;20.24;75.00;94792.34;5040831;28;20235;-63
2022/07/31 03:01:42;;;;;;;19.85;18.08;;;;;;;20.37;74.31;94804.78;5022138;28;20217;-63
2022/07/31 03:04:08;;;;;;;19.20;17.60;;;;;;;20.30;73.98;94801.34;5023119;28;20214;-63
2022/07/31 03:06:35;;;;;;;17.85;16.25;;;;;;;20.38;73.50;94790.38;5037173;28;20222;-63
2022/07/31 03:09:01;;;;;;;18.63;16.67;;;;;;;20.47;72.62;94788.25;5035399;28;20385;-63
2022/07/31 03:11:26;;;;;;;18.48;16.88;;;;;;;20.30;73.02;94796.00;5022092;28;20939;-63
2022/07/31 03:13:54;;;;;;;17.55;15.73;;;;;;;20.18;72.96;94800.41;5023928;28;20220;-63
2022/07/31 03:16:21;;;;;;;17.05;15.65;;;;;;;20.21;72.90;94794.66;5023041;28;20318;-63
2022/07/31 03:18:47;;;;;;;17.38;15.77;;;;;;;20.18;72.95;94803.06;5036059;28;20225;-63
2022/07/31 03:21:13;;;;;;;17.88;15.73;;;;;;;20.21;72.16;94806.16;5019735;28;20238;-63
2022/07/31 03:23:39;;;;;;;17.25;15.65;;;;;;;20.22;71.77;94813.09;5026751;28;20226;-62
2022/07/31 03:26:05;;;;;;;16.95;15.45;;;;;;;20.24;71.46;94802.22;5026683;28;20256;-63
2022/07/31 03:28:33;;;;;;;16.67;15.32;;;;;;;20.34;70.69;94807.91;5045026;28;20214;-63
2022/07/31 03:30:59;;;;;;;16.25;14.95;;;;;;;20.28;70.92;94819.44;5040705;28;20261;-63
2022/07/31 03:33:24;;;;;;;16.02;14.68;;;;;;;20.18;71.38;94819.09;5041892;28;20240;-63
2022/07/31 03:35:51;;;;;;;16.55;15.05;;;;;;;20.13;71.64;94817.09;5044813;28;20229;-63
2022/07/31 03:38:17;;;;;;;15.93;14.60;;;;;;;20.09;72.30;94812.38;5046018;28;20283;-63
2022/07/31 03:40:42;;;;;;;14.93;13.82;;;;;;;20.11;72.35;94821.81;5048212;28;20209;-62
2022/07/31 03:43:08;;;;;;;15.23;14.02;;;;;;;20.20;71.79;94820.50;5033124;28;20678;-64
2022/07/31 03:45:35;;;;;;;15.10;13.73;;;;;;;20.17;71.85;94818.28;5027096;28;20233;-63
2022/07/31 03:48:01;;;;;;;14.32;13.18;;;;;;;20.30;71.04;94819.22;5034896;28;20312;-63
2022/07/31 03:50:27;;;;;;;13.88;12.77;;;;;;;20.24;70.72;94824.41;5046438;28;20289;-63
2022/07/31 03:52:53;;;;;;;14.52;13.32;;;;;;;20.34;70.73;94820.41;5037059;28;20217;-63
2022/07/31 03:55:19;;;;;;;13.73;12.70;;;;;;;20.27;70.73;94823.16;5059860;28;20218;-64
2022/07/31 03:57:45;;;;;;;14.93;13.82;;;;;;;20.28;70.29;94833.59;5047226;28;20217;-63
2022/07/31 04:00:11;;;;;;;15.23;14.02;;;;;;;20.13;70.75;94826.91;5040455;28;20267;-63
2022/07/31 04:02:37;;;;;;;14.68;13.35;;;;;;;20.21;70.80;94832.03;5042392;28;20237;-64
2022/07/31 04:05:03;;;;;;;15.27;13.88;;;;;;;20.13;71.09;94829.59;5046431;28;20214;-64
2022/07/31 04:07:28;;;;;;;14.20;13.10;;;;;;;19.95;71.06;94833.81;5043781;28;20285;-64
2022/07/31 04:09:54;;;;;;;15.30;13.88;;;;;;;19.85;70.99;94838.78;5041666;28;20221;-63
2022/07/31 04:12:19;;;;;;;14.43;13.13;;;;;;;19.75;70.64;94841.09;5034341;28;20229;-63
2022/07/31 04:14:45;;;;;;;14.13;12.98;;;;;;;19.85;70.94;94840.66;5032279;28;20226;-63
2022/07/31 04:17:11;;;;;;;14.88;13.57;;;;;;;19.88;70.69;94835.69;5045072;28;20304;-64
2022/07/31 04:19:38;;;;;;;14.57;13.38;;;;;;;19.87;70.62;94838.59;5026067;28;20201;-64
2022/07/31 04:22:04;;;;;;;15.60;14.18;;;;;;;19.83;71.12;94841.69;5025835;28;20221;-64
2022/07/31 04:24:29;;;;;;;13.93;12.70;;;;;;;19.93;70.86;94843.06;5025624;28;20229;-64
2022/07/31 04:26:55;;;;;;;15.50;14.07;;;;;;;19.90;70.78;94838.16;5022687;28;20222;-62
2022/07/31 04:29:21;;;;;;;14.85;13.55;;;;;;;19.98;70.32;94835.25;5027559;28;20213;-62
2022/07/31 04:31:46;;;;;;;15.82;14.50;;;;;;;20.08;69.98;94829.44;5024358;28;20234;-62
2022/07/31 04:34:12;;;;;;;15.07;13.77;;;;;;;20.20;69.92;94825.84;5026918;28;20221;-63
2022/07/31 04:36:38;;;;;;;16.00;14.70;;;;;;;20.32;69.34;94819.84;5040059;28;20395;-63
2022/07/31 04:39:03;;;;;;;16.58;15.25;;;;;;;20.49;68.95;94818.25;5037327;28;20253;-63
2022/07/31 04:41:29;;;;;;;15.20;13.68;;;;;;;20.40;69.15;94822.22;5023893;28;20327;-63
2022/07/31 04:43:56;;;;;;;16.23;15.02;;;;;;;20.52;69.00;94822.34;5025622;28;20673;-62
2022/07/31 04:46:22;;;;;;;16.98;15.30;;;;;;;20.63;68.79;94811.78;5028488;28;20269;-62
2022/07/31 04:48:48;;;;;;;16.95;15.60;;;;;;;20.62;68.81;94809.34;5026933;28;20218;-62
2022/07/31 04:51:19;;;;;;;15.23;13.93;;;;;;;20.57;69.14;94825.19;5035452;28;20233;-62
2022/07/31 04:53:49;;;;;;;14.70;13.40;;;;;;;20.33;69.28;94819.59;5033847;28;20227;-63
2022/07/31 04:59:21;;;;;;;13.90;12.77;;;;;;;20.49;69.08;94824.41;5025253;28;20236;-63
2022/07/31 05:01:48;;;;;;;13.88;12.77;;;;;;;20.51;68.72;94826.88;5010389;28;20210;-63
2022/07/31 05:04:14;;;;;;;12.50;11.38;;;;;;;20.46;68.83;94830.19;5039257;28;20257;-63
2022/07/31 05:06:45;;;;;;;12.45;11.38;;;;;;;20.52;67.98;94835.69;5023734;28;20227;-63
2022/07/31 05:09:13;;;;;;;12.80;11.82;;;;;;;20.52;68.39;94841.03;5025346;28;20275;-63
2022/07/31 05:11:39;;;;;;;12.63;11.60;;;;;;;20.56;68.48;94843.09;5046962;28;20232;-63
2022/07/31 05:14:06;;;;;;;13.25;12.15;;;;;;;20.62;68.27;94849.41;5023573;28;20213;-63
2022/07/31 05:16:33;;;;;;;12.10;11.07;;;;;;;20.68;67.30;94827.97;5023509;28;20323;-64
2022/07/31 05:18:59;;;;;;;12.23;11.32;;;;;;;20.53;67.94;94838.16;5018669;28;20214;-63
2022/07/31 05:21:31;;;;;;;11.27;10.38;;;;;;;20.47;68.27;94826.50;5030009;28;20233;-62
2022/07/31 05:23:58;;;;;;;11.73;10.90;;;;;;;20.52;67.84;94839.16;5005694;28;20317;-62
2022/07/31 05:26:25;;;;;;;11.30;10.40;;;;;;;20.55;67.92;94838.75;5012877;28;20225;-61
2022/07/31 05:28:52;;;;;;;11.18;10.32;;;;;;;20.48;67.98;94832.66;5023847;28;20263;-62
2022/07/31 05:31:18;;;;;;;11.15;10.32;;;;;;;20.55;68.12;94841.44;5022083;28;20309;-62
2022/07/31 05:33:46;;;;;;;10.68;9.88;;;;;;;20.52;68.16;94836.50;5033677;28;20234;-62
2022/07/31 05:36:12;;;;;;;10.13;9.32;;;;;;;20.45;68.59;94843.78;5021718;28;20226;-61
2022/07/31 05:38:37;;;;;;;10.63;9.82;;;;;;;20.57;67.71;94838.56;5022542;28;20222;-62
2022/07/31 05:41:03;;;;;;;10.88;9.90;;;;;;;20.60;67.31;94836.25;5023300;28;20549;-62
2022/07/31 05:43:28;;;;;;;9.60;8.90;;;;;;;20.61;66.57;94832.56;5061099;28;20660;-61
2022/07/31 05:45:55;;;;;;;9.77;9.02;;;;;;;20.57;67.05;94836.69;5028484;28;20372;-62
2022/07/31 05:48:20;;;;;;;9.65;8.93;;;;;;;20.54;66.77;94837.13;5021593;28;20233;-62
2022/07/31 05:50:47;;;;;;;9.75;9.05;;;;;;;20.60;66.80;94832.78;5055052;28;20223;-61
2022/07/31 05:53:16;;;;;;;9.93;9.15;;;;;;;20.62;66.98;94828.03;5021646;28;20202;-62
2022/07/31 05:55:43;;;;;;;10.30;9.50;;;;;;;20.64;66.51;94829.47;5023826;28;20218;-61
2022/07/31 05:58:09;;;;;;;10.02;9.23;;;;;;;20.64;65.85;94840.16;5023151;28;20309;-60
2022/07/31 06:00:36;;;;;;;10.98;9.90;;;;;;;20.75;66.38;94827.13;5027932;28;20230;-62
2022/07/31 06:03:01;;;;;;;10.93;9.90;;;;;;;20.76;66.66;94831.41;5025934;28;20234;-62
2022/07/31 06:05:28;;;;;;;11.32;10.30;;;;;;;21.07;65.35;94830.50;5053724;28;20284;-61
2022/07/31 06:07:55;;;;;;;11.82;10.82;;;;;;;21.34;63.88;94833.69;5022245;28;20206;-61
2022/07/31 06:10:21;;;;;;;11.82;10.77;;;;;;;21.44;63.98;94838.53;5022921;28;20278;-63
2022/07/31 06:12:47;;;;;;;11.32;10.45;;;;;;;21.54;63.50;94834.34;5018794;28;20240;-62
2022/07/31 06:15:12;;;;;;;10.93;10.05;;;;;;;21.48;63.62;94826.38;5019949;28;20248;-62
2022/07/31 06:17:38;;;;;;;12.32;11.18;;;;;;;21.64;62.03;94819.59;5023902;28;20226;-62
2022/07/31 06:20:04;;;;;;;11.85;10.85;;;;;;;21.65;62.05;94826.56;5026313;28;20209;-62
2022/07/31 06:22:30;;;;;;;12.43;11.35;;;;;;;21.70;61.41;94821.34;5022787;28;20202;-62
2022/07/31 06:24:55;;;;;;;12.02;11.02;;;;;;;21.85;61.24;94816.44;5022221;28;20218;-61
2022/07/31 06:27:21;;;;;;;13.25;12.15;;;;;;;21.99;61.09;94823.22;5021700;28;20317;-61
2022/07/31 06:29:47;;;;;;;14.25;12.93;;;;;;;22.15;60.44;94820.94;5026059;28;20241;-63
2022/07/31 06:32:12;;;;;;;13.40;12.10;;;;;;;22.00;60.01;94824.88;5023131;28;20202;-62
2022/07/31 06:34:38;;;;;;;12.98;11.88;;;;;;;21.88;61.00;94832.03;5026605;28;20268;-62
2022/07/31 06:37:04;;;;;;;13.27;12.18;;;;;;;21.99;60.28;94830.44;5025965;28;20282;-63
2022/07/31 06:39:29;;;;;;;13.63;12.52;;;;;;;22.18;59.75;94813.31;5026510;28;20233;-62
2022/07/31 06:41:54;;;;;;;14.20;13.00;;;;;;;22.46;59.09;94810.00;5019866;28;20226;-62
2022/07/31 06:44:20;;;;;;;13.95;12.75;;;;;;;22.63;59.03;94812.00;5020474;28;20202;-61
2022/07/31 06:46:46;;;;;;;14.13;12.80;;;;;;;22.71;58.95;94810.84;5023258;28;20293;-61
2022/07/31 06:49:12;;;;;;;13.38;12.18;;;;;;;22.77;58.55;94802.66;5039584;28;20225;-62
2022/07/31 06:51:38;;;;;;;14.95;13.65;;;;;;;22.81;57.96;94809.22;5033084;28;20567;-62
2022/07/31 06:54:05;;;;;;;14.50;13.30;;;;;;;22.73;58.66;94812.25;5026400;28;20218;-63
2022/07/31 06:56:32;;;;;;;15.52;14.13;;;;;;;22.70;58.61;94814.56;5023577;28;20357;-63
2022/07/31 06:58:58;;;;;;;14.27;13.05;;;;;;;22.70;58.82;94811.91;5020664;28;20220;-62
2022/07/31 07:01:23;;;;;;;16.20;14.80;;;;;;;22.93;58.15;94819.94;5020375;28;20234;-62
2022/07/31 07:03:49;;;;;;;16.40;14.98;;;;;;;22.91;58.50;94819.38;5019769;28;20231;-61
2022/07/31 07:06:14;;;;;;;16.35;15.05;;;;;;;22.92;57.94;94826.34;5031548;28;20221;-60
2022/07/31 07:08:40;;;;;;;15.38;14.07;;;;;;;22.66;58.86;94822.25;5039259;28;20222;-61
2022/07/31 07:11:05;;;;;;;16.40;15.02;;;;;;;22.70;58.84;94823.44;5047265;28;20206;-61
2022/07/31 07:13:31;;;;;;;17.02;15.63;;;;;;;22.75;58.67;94836.13;5047073;28;20202;-61
2022/07/31 07:15:56;;;;;;;17.08;15.57;;;;;;;22.77;58.40;94834.84;5048244;28;20225;-61
2022/07/31 07:18:22;;;;;;;16.77;15.38;;;;;;;22.82;58.23;94832.28;5047079;28;20221;-62
2022/07/31 07:20:49;;;;;;;16.08;14.73;;;;;;;22.68;58.72;94830.88;5044708;28;20221;-62
2022/07/31 07:23:14;;;;;;;16.55;15.15;;;;;;;22.59;59.44;94835.78;5038318;28;20677;-61
2022/07/31 07:25:40;;;;;;;17.48;16.00;;;;;;;22.59;59.28;94835.78;5045414;28;20201;-61
2022/07/31 07:28:07;;;;;;;16.42;15.13;;;;;;;22.61;59.31;94838.19;5050140;28;20371;-62
2022/07/31 07:30:33;;;;;;;16.92;15.52;;;;;;;22.78;59.06;94820.41;5044149;28;20807;-63
2022/07/31 07:32:58;;;;;;;16.88;15.57;;;;;;;22.74;59.20;94834.50;5046934;28;20252;-61
2022/07/31 07:35:24;;;;;;;16.77;15.48;;;;;;;22.76;59.37;94827.84;5043090;28;20627;-61
2022/07/31 07:37:50;;;;;;;17.13;15.73;;;;;;;22.92;58.52;94829.03;5043529;28;20201;-60
2022/07/31 07:40:16;;;;;;;17.67;16.20;;;;;;;23.09;58.59;94834.53;5043160;28;20232;-62
2022/07/31 07:42:41;;;;;;;16.88;15.50;;;;;;;22.91;59.08;94840.81;5043799;28;20248;-61
2022/07/31 07:45:07;;;;;;;17.23;15.82;;;;;;;22.98;58.35;94830.00;5047562;28;20248;-62
2022/07/31 07:47:33;;;;;;;16.88;15.38;;;;;;;22.77;58.98;94837.50;5042930;28;20282;-60
2022/07/31 07:49:59;;;;;;;18.05;16.50;;;;;;;22.64;59.71;94827.84;5043773;28;20213;-70
2022/07/31 07:52:24;;;;;;;18.35;16.67;;;;;;;22.85;59.20;94820.28;5034789;28;20260;-61
2022/07/31 07:54:49;;;;;;;17.67;16.00;;;;;;;22.91;59.00;94816.69;5043260;28;20274;-62
2022/07/31 07:57:19;;;;;;;18.75;17.05;;;;;;;23.04;59.03;94829.03;5042931;28;20244;-62
2022/07/31 07:59:46;;;;;;;17.75;16.10;;;;;;;23.17;58.75;94828.81;5045676;28;20433;-62
2022/07/31 08:02:12;;;;;;;17.35;15.80;;;;;;;23.36;58.19;94837.53;5044108;28;20197;-62
2022/07/31 08:04:38;;;;;;;17.85;16.20;;;;;;;23.37;57.81;94836.50;5043451;28;20212;-62
2022/07/31 08:07:03;;;;;;;16.67;15.18;;;;;;;23.31;57.55;94827.53;5042389;28;20240;-63
2022/07/31 08:09:29;;;;;;;15.38;13.95;;;;;;;23.30;57.61;94828.56;5043229;28;20240;-62
2022/07/31 08:11:55;;;;;;;14.45;13.25;;;;;;;23.49;57.85;94836.47;5042450;28;20225;-62
2022/07/31 08:14:21;;;;;;;13.40;11.95;;;;;;;23.46;57.29;94844.97;5040332;28;20217;-62
2022/07/31 08:16:46;;;;;;;13.23;12.13;;;;;;;23.53;57.52;94848.38;5043763;28;20267;-61
2022/07/31 08:19:12;;;;;;;14.27;12.98;;;;;;;23.62;56.74;94844.25;5044052;28;20213;-60
2022/07/31 08:21:38;;;;;;;13.50;12.30;;;;;;;23.91;55.99;94849.69;5042955;28;20323;-61
2022/07/31 08:24:04;;;;;;;13.18;12.07;;;;;;;23.93;56.47;94850.28;5057446;28;20309;-61
2022/07/31 08:27:22;;;;;;;12.27;11.27;;;;;;;23.90;55.83;94853.44;5043636;28;20222;-62
2022/07/31 08:29:15;;;;;;;11.85;10.75;;;;;;;24.14;54.75;94844.22;5042481;28;20214;-61
2022/07/31 08:31:40;;;;;;;13.23;12.13;;;;;;;24.13;54.88;94852.50;5042069;28;20240;-62
2022/07/31 08:34:06;;;;;;;12.63;11.43;;;;;;;24.24;54.42;94842.78;5043940;28;20225;-61
2022/07/31 08:36:32;;;;;;;13.18;12.00;;;;;;;24.32;54.42;94847.75;5044632;28;20218;-62
2022/07/31 08:38:57;;;;;;;11.75;10.65;;;;;;;24.23;54.52;94850.03;5045637;28;20217;-61
2022/07/31 08:41:23;;;;;;;11.63;10.63;;;;;;;24.31;54.57;94856.88;5041983;28;20251;-61
2022/07/31 08:43:49;;;;;;;10.85;9.95;;;;;;;24.47;54.01;94858.81;5040760;28;20198;-62
2022/07/31 08:46:15;;;;;;;10.98;10.07;;;;;;;24.47;53.95;94861.50;5042664;28;20218;-61
2022/07/31 08:48:42;;;;;;;11.48;10.57;;;;;;;24.30;54.92;94855.22;5043254;28;20229;-62
2022/07/31 08:51:11;;;;;;;11.30;10.30;;;;;;;24.37;54.59;94859.41;5043264;28;20224;-61
2022/07/31 08:53:38;;;;;;;11.35;10.45;;;;;;;24.44;54.14;94851.25;5043978;28;20225;-62
2022/07/31 08:56:05;;;;;;;11.52;10.63;;;;;;;24.61;53.71;94865.50;5029855;28;20210;-62
2022/07/31 08:58:30;;;;;;;11.35;10.38;;;;;;;24.45;54.16;94860.91;5044254;28;20216;-62
2022/07/31 09:00:56;;;;;;;10.90;10.00;;;;;;;24.49;54.18;94850.53;5040090;28;20213;-62
2022/07/31 09:03:22;;;;;;;10.70;9.80;;;;;;;24.31;53.71;94854.19;5041331;28;20231;-62
2022/07/31 09:05:47;;;;;;;11.88;11.00;;;;;;;24.29;54.06;94850.94;5041764;28;20217;-62
2022/07/31 09:08:13;;;;;;;11.10;10.10;;;;;;;24.47;53.46;94850.75;5042279;28;20201;-61
2022/07/31 09:10:38;;;;;;;11.68;10.80;;;;;;;24.60;53.22;94855.81;5043387;28;20224;-61
2022/07/31 09:13:13;;;;;;;11.75;10.85;;;;;;;24.63;52.32;94857.19;5043336;28;20226;-62
2022/07/31 09:15:38;;;;;;;12.30;11.30;;;;;;;24.64;51.60;94853.44;5043918;28;20248;-61
2022/07/31 09:18:20;;;;;;;11.90;10.93;;;;;;;24.53;52.05;94849.78;5040682;28;20268;-62
2022/07/31 09:21:12;;;;;;;11.68;10.85;;;;;;;24.90;51.69;94856.56;5040425;28;20302;-63
2022/07/31 09:23:45;;;;;;;12.10;11.00;;;;;;;25.26;50.55;94850.69;5039122;28;20229;-62
2022/07/31 09:26:11;;;;;;;11.52;10.63;;;;;;;25.16;50.41;94839.78;5042989;28;20194;-61
2022/07/31 09:28:41;;;;;;;11.07;10.27;;;;;;;25.36;50.01;94844.63;5044197;28;20214;-61
2022/07/31 09:31:09;;;;;;;11.35;10.52;;;;;;;25.51;49.91;94835.94;5043211;28;20245;-62
2022/07/31 09:33:37;;;;;;;13.73;12.63;;;;;;;25.39;49.71;94838.72;5042516;28;20574;-61
2022/07/31 09:36:03;;;;;;;15.52;14.23;;;;;;;25.21;49.87;94836.34;5043091;28;20248;-62
2022/07/31 09:38:35;;;;;;;14.95;13.77;;;;;;;25.28;49.83;94824.31;5042211;28;20321;-62
2022/07/31 09:41:19;;;;;;;16.00;14.70;;;;;;;25.47;49.03;94830.25;5039957;28;20232;-63
2022/07/31 09:43:55;;;;;;;16.77;15.38;;;;;;;26.02;47.84;94827.69;5038819;28;20217;-61
2022/07/31 09:46:21;;;;;;;17.55;16.15;;;;;;;25.72;47.38;94834.31;5036977;28;20229;-61
2022/07/31 09:48:51;;;;;;;15.60;14.43;;;;;;;25.73;46.50;94828.66;5046136;28;20217;-61
2022/07/31 09:51:17;;;;;;;16.40;15.10;;;;;;;25.70;46.37;94828.38;5042286;28;20267;-62
2022/07/31 09:53:56;;;;;;;16.33;14.95;;;;;;;25.81;45.73;94830.13;5043620;28;20225;-62
2022/07/31 09:56:32;;;;;;;16.35;15.07;;;;;;;25.87;45.55;94822.94;5038018;28;20214;-62
2022/07/31 09:58:58;;;;;;;15.43;14.32;;;;;;;26.31;44.97;94818.28;5042060;28;20210;-61
2022/07/31 10:01:24;;;;;;;16.50;15.20;;;;;;;26.23;44.10;94826.03;5041373;28;20315;-61
2022/07/31 10:03:51;;;;;;;15.68;14.38;;;;;;;26.07;44.07;94819.66;5044183;28;20217;-62
2022/07/31 10:06:19;;;;;;;14.98;13.93;;;;;;;25.44;44.48;94816.47;5043429;28;20629;-62
2022/07/31 10:08:45;;;;;;;14.98;13.77;;;;;;;25.23;45.49;94804.59;5042571;28;20275;-62
2022/07/31 10:11:12;;;;;;;15.13;14.02;;;;;;;25.04;46.04;94812.91;5037093;28;20263;-62
2022/07/31 10:13:44;;;;;;;17.10;15.80;;;;;;;25.02;46.31;94800.78;5039967;28;20206;-62
2022/07/31 10:16:10;;;;;;;17.05;15.75;;;;;;;25.11;45.92;94810.06;5041731;28;20300;-61
2022/07/31 10:18:39;;;;;;;17.67;16.38;;;;;;;25.42;46.43;94811.34;5042112;28;20316;-63
2022/07/31 10:21:07;;;;;;;17.27;15.93;;;;;;;25.73;46.32;94815.22;5041877;28;20225;-62
2022/07/31 10:23:37;;;;;;;16.70;15.48;;;;;;;25.82;46.39;94804.81;5042313;28;20225;-62
2022/07/31 10:26:03;;;;;;;17.00;15.70;;;;;;;25.63;45.43;94806.19;5041594;28;20193;-62
2022/07/31 10:28:29;;;;;;;17.55;16.25;;;;;;;25.33;45.47;94804.75;5039858;28;20197;-62
2022/07/31 10:30:56;;;;;;;15.88;14.77;;;;;;;25.09;45.58;94807.63;5040704;28;20257;-62
2022/07/31 10:33:22;;;;;;;13.95;12.88;;;;;;;25.11;44.41;94803.88;5040479;28;20295;-61
2022/07/31 10:36:10;;;;;;;14.20;13.07;;;;;;;25.20;44.41;94795.16;5041089;28;20233;-62
2022/07/31 10:38:44;;;;;;;14.23;13.23;;;;;;;25.20;44.33;94792.47;5040469;28;20229;-62
2022/07/31 10:41:31;;;;;;;15.20;14.00;;;;;;;25.45;44.74;94810.84;5043000;28;20216;-61
2022/07/31 10:44:12;;;;;;;16.27;15.07;;;;;;;25.62;44.17;94785.72;5049489;28;20709;-62
2022/07/31 10:46:37;;;;;;;14.10;13.10;;;;;;;25.78;43.36;94786.72;5040200;28;20279;-61
2022/07/31 10:49:03;;;;;;;13.95;12.80;;;;;;;25.96;43.42;94789.09;5042042;28;20221;-61
2022/07/31 10:51:30;;;;;;;13.27;12.38;;;;;;;26.03;42.07;94773.53;5040577;28;20296;-61
2022/07/31 10:54:10;;;;;;;13.70;12.70;;;;;;;26.10;41.89;94776.03;5041417;28;20221;-61
2022/07/31 10:56:43;;;;;;;12.25;11.32;;;;;;;26.17;41.51;94771.28;5024812;28;20235;-62
2022/07/31 10:59:09;;;;;;;13.45;12.45;;;;;;;26.46;41.25;94777.16;5037782;28;20209;-61
2022/07/31 11:01:48;;;;;;;12.70;11.80;;;;;;;26.51;41.47;94773.69;5038799;28;20684;-62
2022/07/31 11:04:26;;;;;;;12.52;11.57;;;;;;;26.72;40.53;94772.81;5040318;28;20236;-61
2022/07/31 11:06:51;;;;;;;13.25;12.30;;;;;;;26.69;40.55;94781.44;5037649;28;20315;-63
2022/07/31 11:09:22;;;;;;;13.55;12.65;;;;;;;26.77;40.95;94778.25;5041704;28;20315;-61
2022/07/31 11:11:47;;;;;;;12.52;11.63;;;;;;;26.96;39.97;94770.53;5040717;28;20221;-62
2022/07/31 11:14:13;;;;;;;11.23;10.32;;;;;;;26.52;39.58;94773.50;5041736;28;20208;-61
2022/07/31 11:16:52;;;;;;;10.95;10.15;;;;;;;26.57;39.03;94760.03;5040936;28;20214;-62
2022/07/31 11:19:18;;;;;;;10.23;9.52;;;;;;;27.19;38.38;94763.97;5042606;28;20220;-61
2022/07/31 11:21:43;;;;;;;11.52;10.73;;;;;;;27.78;37.12;94762.88;5033651;28;20229;-63